Airfield :
LOGIN :

Register | Disclaimer

   EN    FR    IT 

 










Legend :    VFR   Marginal VFR   IFR   Intensive IFR   Very Intensive IFR
Visi :
Ceiling :
>= 8 km
>= 3000ft
5 to 8 km
1000 to 3000 ft
1500m to 5 km
500 to 1000 ft
800 to 1500m
200 to 500 ft
< 800m
< 200 ft
Symbols :   Thunderstorms  Fog  Heavy snow  Heavy precipitations  Wind > 20 kt
SIGMETs :     Misc.  Thunderstorms  Icing  Turbulence  Mountain Waves  Volcanic Ashes






- Airport Elevation : 46 ft
- IATA code : SNN


EINN - Shannon

CURRENT METAR :
  • 141900Z 13003KT 9999 FEW007 BKN021 BKN060 12/12 Q1001 NOSIG

EXPIRED METARs :
  • 141830Z 13003KT 9999 FEW009 BKN012 12/12 Q1001 NOSIG
  • 141800Z 15004KT 9999 -RA FEW006 SCT012 BKN060 13/12 Q1001 NOSIG
  • 141730Z 18003KT 9999 -RA FEW005 SCT012 BKN060 13/12 Q1001 NOSIG
  • 141700Z 17004KT 9999 -RA FEW005 SCT010 BKN060 13/12 Q1000 NOSIG
  • 141630Z 21002KT 9999 -RA FEW005 SCT010 BKN070 13/12 Q1000 NOSIG

TAF TAF EINN
Valid from the 14 at 18:00 until the 15 at 18:00 UTC


141700Z 1418/1518 VRB03KT 9999 -RA SCT006 BKN012
TEMPO 1418/1424 3000 RA BKN006 BKN020CB
TEMPO 1500/1503 3000 BR BKN007
BECMG 1514/1517 15015G26KT 5000 -RA BKN010



MET'MAP, your aeronautical weather chart ! - Copyright ORBIFLY December 2007 - Disclaimer

ORBIFLY MET'MAP TEAM :

Programming & Development : Alexandra Zaïnal
Concept & Development : Baudouin d'Aumeries
Co-Development & Prog : Marc-Olivier Méhu
Technical & hardware support : Manuel Goepfert

Contact : metmap@orbifly.com




SOURCES & CREDITS :

   NOAA